sensor_id;sensor_type;location;lat;lon;timestamp;P1;durP1;ratioP1;P2;durP2;ratioP2
64367;SDS011;50692;53.314;-6.300;2023-07-02T00:01:43;10.77;;;3.90;;
64367;SDS011;50692;53.314;-6.300;2023-07-02T00:04:29;10.05;;;3.60;;
64367;SDS011;50692;53.314;-6.300;2023-07-02T00:07:15;8.35;;;3.95;;
64367;SDS011;50692;53.314;-6.300;2023-07-02T00:10:01;9.63;;;3.72;;
64367;SDS011;50692;53.314;-6.300;2023-07-02T00:12:47;9.48;;;3.63;;
64367;SDS011;50692;53.314;-6.300;2023-07-02T00:15:34;11.18;;;3.72;;
64367;SDS011;50692;53.314;-6.300;2023-07-02T00:18:20;10.90;;;3.42;;
64367;SDS011;50692;53.314;-6.300;2023-07-02T00:21:06;7.65;;;3.50;;
64367;SDS011;50692;53.314;-6.300;2023-07-02T00:23:52;11.18;;;4.30;;
64367;SDS011;50692;53.314;-6.300;2023-07-02T00:26:38;8.68;;;3.58;;
64367;SDS011;50692;53.314;-6.300;2023-07-02T00:29:25;9.50;;;3.63;;
64367;SDS011;50692;53.314;-6.300;2023-07-02T00:32:11;10.00;;;3.55;;
64367;SDS011;50692;53.314;-6.300;2023-07-02T00:34:57;8.13;;;3.47;;
64367;SDS011;50692;53.314;-6.300;2023-07-02T00:37:44;10.32;;;3.92;;
64367;SDS011;50692;53.314;-6.300;2023-07-02T00:40:30;13.13;;;4.13;;
64367;SDS011;50692;53.314;-6.300;2023-07-02T00:43:16;8.20;;;3.55;;
64367;SDS011;50692;53.314;-6.300;2023-07-02T00:46:01;9.07;;;3.60;;
64367;SDS011;50692;53.314;-6.300;2023-07-02T00:48:52;10.77;;;4.13;;
64367;SDS011;50692;53.314;-6.300;2023-07-02T00:51:39;11.45;;;3.20;;
64367;SDS011;50692;53.314;-6.300;2023-07-02T00:54:29;8.75;;;3.42;;
64367;SDS011;50692;53.314;-6.300;2023-07-02T01:00:01;12.85;;;3.90;;
64367;SDS011;50692;53.314;-6.300;2023-07-02T01:02:54;9.68;;;4.15;;
64367;SDS011;50692;53.314;-6.300;2023-07-02T01:05:44;10.93;;;3.95;;
64367;SDS011;50692;53.314;-6.300;2023-07-02T01:08:30;13.30;;;3.63;;
64367;SDS011;50692;53.314;-6.300;2023-07-02T01:11:16;6.25;;;3.40;;
64367;SDS011;50692;53.314;-6.300;2023-07-02T01:14:02;11.65;;;3.80;;
64367;SDS011;50692;53.314;-6.300;2023-07-02T01:16:51;9.93;;;3.35;;
64367;SDS011;50692;53.314;-6.300;2023-07-02T01:19:41;7.78;;;4.05;;
64367;SDS011;50692;53.314;-6.300;2023-07-02T01:22:29;6.75;;;3.38;;
64367;SDS011;50692;53.314;-6.300;2023-07-02T01:25:16;7.13;;;3.97;;
64367;SDS011;50692;53.314;-6.300;2023-07-02T01:28:03;9.82;;;3.35;;
64367;SDS011;50692;53.314;-6.300;2023-07-02T01:30:49;11.52;;;4.00;;
64367;SDS011;50692;53.314;-6.300;2023-07-02T01:33:35;7.38;;;3.20;;
64367;SDS011;50692;53.314;-6.300;2023-07-02T01:36:21;11.05;;;4.35;;
64367;SDS011;50692;53.314;-6.300;2023-07-02T01:39:06;9.80;;;3.42;;
64367;SDS011;50692;53.314;-6.300;2023-07-02T01:41:53;8.77;;;3.28;;
64367;SDS011;50692;53.314;-6.300;2023-07-02T01:44:41;12.40;;;4.32;;
64367;SDS011;50692;53.314;-6.300;2023-07-02T01:47:28;8.77;;;3.13;;
64367;SDS011;50692;53.314;-6.300;2023-07-02T01:50:14;11.80;;;3.53;;
64367;SDS011;50692;53.314;-6.300;2023-07-02T01:52:59;9.63;;;3.65;;
64367;SDS011;50692;53.314;-6.300;2023-07-02T01:55:45;9.85;;;3.20;;
64367;SDS011;50692;53.314;-6.300;2023-07-02T01:58:31;9.02;;;3.30;;
64367;SDS011;50692;53.314;-6.300;2023-07-02T02:01:17;9.98;;;4.00;;
64367;SDS011;50692;53.314;-6.300;2023-07-02T02:04:03;6.35;;;3.10;;
64367;SDS011;50692;53.314;-6.300;2023-07-02T02:06:48;10.40;;;3.35;;
64367;SDS011;50692;53.314;-6.300;2023-07-02T02:09:34;11.13;;;3.75;;
64367;SDS011;50692;53.314;-6.300;2023-07-02T02:12:20;9.38;;;2.65;;
64367;SDS011;50692;53.314;-6.300;2023-07-02T02:15:06;12.73;;;3.97;;
64367;SDS011;50692;53.314;-6.300;2023-07-02T02:17:52;9.13;;;3.03;;
64367;SDS011;50692;53.314;-6.300;2023-07-02T02:20:39;9.20;;;3.15;;
64367;SDS011;50692;53.314;-6.300;2023-07-02T02:23:25;9.90;;;3.35;;
64367;SDS011;50692;53.314;-6.300;2023-07-02T02:26:11;8.45;;;3.08;;
64367;SDS011;50692;53.314;-6.300;2023-07-02T02:28:56;11.18;;;3.42;;
64367;SDS011;50692;53.314;-6.300;2023-07-02T02:31:43;7.30;;;2.40;;
64367;SDS011;50692;53.314;-6.300;2023-07-02T02:34:29;9.75;;;3.40;;
64367;SDS011;50692;53.314;-6.300;2023-07-02T02:37:15;10.40;;;3.33;;
64367;SDS011;50692;53.314;-6.300;2023-07-02T02:40:01;9.20;;;2.80;;
64367;SDS011;50692;53.314;-6.300;2023-07-02T02:42:47;9.73;;;3.42;;
64367;SDS011;50692;53.314;-6.300;2023-07-02T02:45:32;7.22;;;3.08;;
64367;SDS011;50692;53.314;-6.300;2023-07-02T02:48:18;5.88;;;2.70;;
64367;SDS011;50692;53.314;-6.300;2023-07-02T02:51:04;9.07;;;3.72;;
64367;SDS011;50692;53.314;-6.300;2023-07-02T02:53:50;8.82;;;3.22;;
64367;SDS011;50692;53.314;-6.300;2023-07-02T02:56:35;12.68;;;3.42;;
64367;SDS011;50692;53.314;-6.300;2023-07-02T02:59:21;11.73;;;3.15;;
64367;SDS011;50692;53.314;-6.300;2023-07-02T03:02:08;8.65;;;3.08;;
64367;SDS011;50692;53.314;-6.300;2023-07-02T03:04:54;12.15;;;3.08;;
64367;SDS011;50692;53.314;-6.300;2023-07-02T03:07:42;10.15;;;3.03;;
64367;SDS011;50692;53.314;-6.300;2023-07-02T03:10:28;7.80;;;2.92;;
64367;SDS011;50692;53.314;-6.300;2023-07-02T03:13:13;10.02;;;2.95;;
64367;SDS011;50692;53.314;-6.300;2023-07-02T03:15:59;10.98;;;3.00;;
64367;SDS011;50692;53.314;-6.300;2023-07-02T03:18:45;6.65;;;2.60;;
64367;SDS011;50692;53.314;-6.300;2023-07-02T03:21:31;7.55;;;2.85;;
64367;SDS011;50692;53.314;-6.300;2023-07-02T03:24:17;10.43;;;3.65;;
64367;SDS011;50692;53.314;-6.300;2023-07-02T03:27:03;7.95;;;2.90;;
64367;SDS011;50692;53.314;-6.300;2023-07-02T03:29:51;10.63;;;3.25;;
64367;SDS011;50692;53.314;-6.300;2023-07-02T03:32:37;10.63;;;3.60;;
64367;SDS011;50692;53.314;-6.300;2023-07-02T03:35:23;11.15;;;3.08;;
64367;SDS011;50692;53.314;-6.300;2023-07-02T03:38:09;8.57;;;2.88;;
64367;SDS011;50692;53.314;-6.300;2023-07-02T03:40:54;11.60;;;3.38;;
64367;SDS011;50692;53.314;-6.300;2023-07-02T03:43:40;10.23;;;2.60;;
64367;SDS011;50692;53.314;-6.300;2023-07-02T03:46:26;10.52;;;3.10;;
64367;SDS011;50692;53.314;-6.300;2023-07-02T03:49:12;9.43;;;3.03;;
64367;SDS011;50692;53.314;-6.300;2023-07-02T03:51:58;7.13;;;2.70;;
64367;SDS011;50692;53.314;-6.300;2023-07-02T03:54:44;6.38;;;2.53;;
64367;SDS011;50692;53.314;-6.300;2023-07-02T03:57:30;6.50;;;2.55;;
64367;SDS011;50692;53.314;-6.300;2023-07-02T04:00:16;10.27;;;2.70;;
64367;SDS011;50692;53.314;-6.300;2023-07-02T04:03:02;7.72;;;2.40;;
64367;SDS011;50692;53.314;-6.300;2023-07-02T04:05:48;8.73;;;2.85;;
64367;SDS011;50692;53.314;-6.300;2023-07-02T04:08:34;9.65;;;3.08;;
64367;SDS011;50692;53.314;-6.300;2023-07-02T04:11:20;12.75;;;2.90;;
64367;SDS011;50692;53.314;-6.300;2023-07-02T04:14:06;9.77;;;2.80;;
64367;SDS011;50692;53.314;-6.300;2023-07-02T04:16:51;6.68;;;2.78;;
64367;SDS011;50692;53.314;-6.300;2023-07-02T04:19:37;9.52;;;3.08;;
64367;SDS011;50692;53.314;-6.300;2023-07-02T04:22:23;8.93;;;2.58;;
64367;SDS011;50692;53.314;-6.300;2023-07-02T04:25:09;9.00;;;2.72;;
64367;SDS011;50692;53.314;-6.300;2023-07-02T04:27:55;8.68;;;3.53;;
64367;SDS011;50692;53.314;-6.300;2023-07-02T04:30:42;6.45;;;2.47;;
64367;SDS011;50692;53.314;-6.300;2023-07-02T04:33:27;7.47;;;2.92;;
64367;SDS011;50692;53.314;-6.300;2023-07-02T04:36:20;7.05;;;2.72;;
64367;SDS011;50692;53.314;-6.300;2023-07-02T04:39:07;5.95;;;2.53;;
64367;SDS011;50692;53.314;-6.300;2023-07-02T04:41:54;7.30;;;2.38;;
64367;SDS011;50692;53.314;-6.300;2023-07-02T04:44:40;6.10;;;2.72;;
64367;SDS011;50692;53.314;-6.300;2023-07-02T04:47:29;11.30;;;2.92;;
64367;SDS011;50692;53.314;-6.300;2023-07-02T04:50:15;7.28;;;2.92;;
64367;SDS011;50692;53.314;-6.300;2023-07-02T04:53:03;9.13;;;2.65;;
64367;SDS011;50692;53.314;-6.300;2023-07-02T04:55:49;9.20;;;2.60;;
64367;SDS011;50692;53.314;-6.300;2023-07-02T04:58:34;6.78;;;2.67;;
64367;SDS011;50692;53.314;-6.300;2023-07-02T05:01:20;10.55;;;2.67;;
64367;SDS011;50692;53.314;-6.300;2023-07-02T05:04:06;8.95;;;3.03;;
64367;SDS011;50692;53.314;-6.300;2023-07-02T05:06:54;7.50;;;3.10;;
64367;SDS011;50692;53.314;-6.300;2023-07-02T05:09:40;10.05;;;3.03;;
64367;SDS011;50692;53.314;-6.300;2023-07-02T05:12:26;4.35;;;2.17;;
64367;SDS011;50692;53.314;-6.300;2023-07-02T05:15:12;8.20;;;2.58;;
64367;SDS011;50692;53.314;-6.300;2023-07-02T05:17:57;7.88;;;2.40;;
64367;SDS011;50692;53.314;-6.300;2023-07-02T05:20:44;5.95;;;2.63;;
64367;SDS011;50692;53.314;-6.300;2023-07-02T05:23:30;7.47;;;2.83;;
64367;SDS011;50692;53.314;-6.300;2023-07-02T05:26:16;6.82;;;2.72;;
64367;SDS011;50692;53.314;-6.300;2023-07-02T05:29:03;7.15;;;2.78;;
64367;SDS011;50692;53.314;-6.300;2023-07-02T05:31:50;6.05;;;2.25;;
64367;SDS011;50692;53.314;-6.300;2023-07-02T05:34:36;10.25;;;3.55;;
64367;SDS011;50692;53.314;-6.300;2023-07-02T05:37:22;5.82;;;2.53;;
64367;SDS011;50692;53.314;-6.300;2023-07-02T05:40:08;7.68;;;2.78;;
64367;SDS011;50692;53.314;-6.300;2023-07-02T05:42:54;10.40;;;2.72;;
64367;SDS011;50692;53.314;-6.300;2023-07-02T05:45:40;9.10;;;2.70;;
64367;SDS011;50692;53.314;-6.300;2023-07-02T05:48:26;7.70;;;2.78;;
64367;SDS011;50692;53.314;-6.300;2023-07-02T05:51:12;5.35;;;2.35;;
64367;SDS011;50692;53.314;-6.300;2023-07-02T05:53:58;7.78;;;2.60;;
64367;SDS011;50692;53.314;-6.300;2023-07-02T05:56:44;8.93;;;3.08;;
64367;SDS011;50692;53.314;-6.300;2023-07-02T05:59:30;10.02;;;2.67;;
64367;SDS011;50692;53.314;-6.300;2023-07-02T06:02:16;8.60;;;2.80;;
64367;SDS011;50692;53.314;-6.300;2023-07-02T06:05:02;7.95;;;2.47;;
64367;SDS011;50692;53.314;-6.300;2023-07-02T06:07:48;7.68;;;2.90;;
64367;SDS011;50692;53.314;-6.300;2023-07-02T06:10:33;9.00;;;2.90;;
64367;SDS011;50692;53.314;-6.300;2023-07-02T06:13:19;10.13;;;2.83;;
64367;SDS011;50692;53.314;-6.300;2023-07-02T06:16:05;6.55;;;2.55;;
64367;SDS011;50692;53.314;-6.300;2023-07-02T06:18:51;13.82;;;3.38;;
64367;SDS011;50692;53.314;-6.300;2023-07-02T06:21:37;5.90;;;2.80;;
64367;SDS011;50692;53.314;-6.300;2023-07-02T06:24:22;13.18;;;3.58;;
64367;SDS011;50692;53.314;-6.300;2023-07-02T06:27:08;10.27;;;2.90;;
64367;SDS011;50692;53.314;-6.300;2023-07-02T06:29:54;7.63;;;2.65;;
64367;SDS011;50692;53.314;-6.300;2023-07-02T06:32:40;4.53;;;2.00;;
64367;SDS011;50692;53.314;-6.300;2023-07-02T06:35:26;6.63;;;2.20;;
64367;SDS011;50692;53.314;-6.300;2023-07-02T06:38:12;7.30;;;2.10;;
64367;SDS011;50692;53.314;-6.300;2023-07-02T06:40:57;8.05;;;2.40;;
64367;SDS011;50692;53.314;-6.300;2023-07-02T06:43:43;6.32;;;2.38;;
64367;SDS011;50692;53.314;-6.300;2023-07-02T06:46:29;6.82;;;2.85;;
64367;SDS011;50692;53.314;-6.300;2023-07-02T06:49:15;5.68;;;2.35;;
64367;SDS011;50692;53.314;-6.300;2023-07-02T06:52:01;8.35;;;2.70;;
64367;SDS011;50692;53.314;-6.300;2023-07-02T06:54:47;6.75;;;2.65;;
64367;SDS011;50692;53.314;-6.300;2023-07-02T06:57:33;7.57;;;2.40;;
64367;SDS011;50692;53.314;-6.300;2023-07-02T07:00:18;10.60;;;2.65;;
64367;SDS011;50692;53.314;-6.300;2023-07-02T07:03:04;8.90;;;2.40;;
64367;SDS011;50692;53.314;-6.300;2023-07-02T07:05:50;7.03;;;2.50;;
64367;SDS011;50692;53.314;-6.300;2023-07-02T07:08:37;9.63;;;2.33;;
64367;SDS011;50692;53.314;-6.300;2023-07-02T07:11:24;9.15;;;2.40;;
64367;SDS011;50692;53.314;-6.300;2023-07-02T07:14:10;5.80;;;2.25;;
64367;SDS011;50692;53.314;-6.300;2023-07-02T07:16:55;6.30;;;1.85;;
64367;SDS011;50692;53.314;-6.300;2023-07-02T07:19:41;7.93;;;2.70;;
64367;SDS011;50692;53.314;-6.300;2023-07-02T07:22:27;9.73;;;2.35;;
64367;SDS011;50692;53.314;-6.300;2023-07-02T07:25:13;5.47;;;2.10;;
64367;SDS011;50692;53.314;-6.300;2023-07-02T07:27:59;6.13;;;2.40;;
64367;SDS011;50692;53.314;-6.300;2023-07-02T07:30:45;7.32;;;2.13;;
64367;SDS011;50692;53.314;-6.300;2023-07-02T07:33:31;6.75;;;2.63;;
64367;SDS011;50692;53.314;-6.300;2023-07-02T07:36:16;7.72;;;2.35;;
64367;SDS011;50692;53.314;-6.300;2023-07-02T07:39:02;5.78;;;2.20;;
64367;SDS011;50692;53.314;-6.300;2023-07-02T07:41:48;9.75;;;2.70;;
64367;SDS011;50692;53.314;-6.300;2023-07-02T07:44:34;7.72;;;2.65;;
64367;SDS011;50692;53.314;-6.300;2023-07-02T07:47:20;7.85;;;2.03;;
64367;SDS011;50692;53.314;-6.300;2023-07-02T07:50:06;5.80;;;1.95;;
64367;SDS011;50692;53.314;-6.300;2023-07-02T07:55:41;8.68;;;2.53;;
64367;SDS011;50692;53.314;-6.300;2023-07-02T07:58:27;7.38;;;2.50;;
64367;SDS011;50692;53.314;-6.300;2023-07-02T08:01:13;4.55;;;2.38;;
64367;SDS011;50692;53.314;-6.300;2023-07-02T08:03:59;6.68;;;2.22;;
64367;SDS011;50692;53.314;-6.300;2023-07-02T08:06:45;6.65;;;2.30;;
64367;SDS011;50692;53.314;-6.300;2023-07-02T08:09:30;7.93;;;2.88;;
64367;SDS011;50692;53.314;-6.300;2023-07-02T08:12:16;9.55;;;2.72;;
64367;SDS011;50692;53.314;-6.300;2023-07-02T08:15:02;6.10;;;2.90;;
64367;SDS011;50692;53.314;-6.300;2023-07-02T08:17:48;8.00;;;2.65;;
64367;SDS011;50692;53.314;-6.300;2023-07-02T08:20:35;4.60;;;2.35;;
64367;SDS011;50692;53.314;-6.300;2023-07-02T08:23:21;7.25;;;2.20;;
64367;SDS011;50692;53.314;-6.300;2023-07-02T08:26:06;7.68;;;2.42;;
64367;SDS011;50692;53.314;-6.300;2023-07-02T08:28:52;8.60;;;2.63;;
64367;SDS011;50692;53.314;-6.300;2023-07-02T08:31:40;7.97;;;2.17;;
64367;SDS011;50692;53.314;-6.300;2023-07-02T08:34:26;9.25;;;2.25;;
64367;SDS011;50692;53.314;-6.300;2023-07-02T08:37:12;4.55;;;2.15;;
64367;SDS011;50692;53.314;-6.300;2023-07-02T08:39:58;7.43;;;2.63;;
64367;SDS011;50692;53.314;-6.300;2023-07-02T08:42:47;8.25;;;2.38;;
64367;SDS011;50692;53.314;-6.300;2023-07-02T08:45:35;5.68;;;2.03;;
64367;SDS011;50692;53.314;-6.300;2023-07-02T08:48:22;7.90;;;2.35;;
64367;SDS011;50692;53.314;-6.300;2023-07-02T08:51:09;5.15;;;1.85;;
64367;SDS011;50692;53.314;-6.300;2023-07-02T08:53:55;6.40;;;1.77;;
64367;SDS011;50692;53.314;-6.300;2023-07-02T08:56:41;7.63;;;2.28;;
64367;SDS011;50692;53.314;-6.300;2023-07-02T08:59:27;5.88;;;1.80;;
64367;SDS011;50692;53.314;-6.300;2023-07-02T09:02:13;4.75;;;1.80;;
64367;SDS011;50692;53.314;-6.300;2023-07-02T09:05:02;6.63;;;1.85;;
64367;SDS011;50692;53.314;-6.300;2023-07-02T09:07:49;5.57;;;2.22;;
64367;SDS011;50692;53.314;-6.300;2023-07-02T09:10:38;8.50;;;2.53;;
64367;SDS011;50692;53.314;-6.300;2023-07-02T09:13:23;8.38;;;1.95;;
64367;SDS011;50692;53.314;-6.300;2023-07-02T09:16:32;6.30;;;2.13;;
64367;SDS011;50692;53.314;-6.300;2023-07-02T09:19:21;6.95;;;1.80;;
64367;SDS011;50692;53.314;-6.300;2023-07-02T09:22:07;3.92;;;1.92;;
64367;SDS011;50692;53.314;-6.300;2023-07-02T09:24:57;4.18;;;1.60;;
64367;SDS011;50692;53.314;-6.300;2023-07-02T09:27:44;6.15;;;1.83;;
64367;SDS011;50692;53.314;-6.300;2023-07-02T09:30:30;4.90;;;1.50;;
64367;SDS011;50692;53.314;-6.300;2023-07-02T09:33:16;5.18;;;1.65;;
64367;SDS011;50692;53.314;-6.300;2023-07-02T09:36:03;6.70;;;1.70;;
64367;SDS011;50692;53.314;-6.300;2023-07-02T09:38:49;4.70;;;1.63;;
64367;SDS011;50692;53.314;-6.300;2023-07-02T09:41:35;8.38;;;1.70;;
64367;SDS011;50692;53.314;-6.300;2023-07-02T09:44:21;5.72;;;1.70;;
64367;SDS011;50692;53.314;-6.300;2023-07-02T09:47:08;5.35;;;1.75;;
64367;SDS011;50692;53.314;-6.300;2023-07-02T09:49:57;5.53;;;1.67;;
64367;SDS011;50692;53.314;-6.300;2023-07-02T09:52:50;5.22;;;1.67;;
64367;SDS011;50692;53.314;-6.300;2023-07-02T09:55:41;3.33;;;1.80;;
64367;SDS011;50692;53.314;-6.300;2023-07-02T09:58:28;4.75;;;1.30;;
64367;SDS011;50692;53.314;-6.300;2023-07-02T10:01:17;3.53;;;1.67;;
64367;SDS011;50692;53.314;-6.300;2023-07-02T10:04:15;6.70;;;1.67;;
64367;SDS011;50692;53.314;-6.300;2023-07-02T10:07:04;5.82;;;1.80;;
64367;SDS011;50692;53.314;-6.300;2023-07-02T10:09:50;5.20;;;1.70;;
64367;SDS011;50692;53.314;-6.300;2023-07-02T10:12:45;5.90;;;1.60;;
64367;SDS011;50692;53.314;-6.300;2023-07-02T10:15:31;5.82;;;2.00;;
64367;SDS011;50692;53.314;-6.300;2023-07-02T10:18:25;3.55;;;1.65;;
64367;SDS011;50692;53.314;-6.300;2023-07-02T10:21:15;3.90;;;1.40;;
64367;SDS011;50692;53.314;-6.300;2023-07-02T10:26:58;6.95;;;1.67;;
64367;SDS011;50692;53.314;-6.300;2023-07-02T10:29:50;4.18;;;1.38;;
64367;SDS011;50692;53.314;-6.300;2023-07-02T10:32:37;3.95;;;1.42;;
64367;SDS011;50692;53.314;-6.300;2023-07-02T10:35:23;4.10;;;1.65;;
64367;SDS011;50692;53.314;-6.300;2023-07-02T10:38:29;4.15;;;1.60;;
64367;SDS011;50692;53.314;-6.300;2023-07-02T10:41:28;2.30;;;1.45;;
64367;SDS011;50692;53.314;-6.300;2023-07-02T10:44:14;3.78;;;1.33;;
64367;SDS011;50692;53.314;-6.300;2023-07-02T10:47:03;4.35;;;1.30;;
64367;SDS011;50692;53.314;-6.300;2023-07-02T10:49:49;4.32;;;1.20;;
64367;SDS011;50692;53.314;-6.300;2023-07-02T10:52:38;5.80;;;1.25;;
64367;SDS011;50692;53.314;-6.300;2023-07-02T10:55:24;5.10;;;1.30;;
64367;SDS011;50692;53.314;-6.300;2023-07-02T10:58:11;5.00;;;1.73;;
64367;SDS011;50692;53.314;-6.300;2023-07-02T11:00:59;3.42;;;1.38;;
64367;SDS011;50692;53.314;-6.300;2023-07-02T11:03:45;4.22;;;1.25;;
64367;SDS011;50692;53.314;-6.300;2023-07-02T11:06:31;5.53;;;1.50;;
64367;SDS011;50692;53.314;-6.300;2023-07-02T11:09:18;5.43;;;1.60;;
64367;SDS011;50692;53.314;-6.300;2023-07-02T11:12:06;5.85;;;1.67;;
64367;SDS011;50692;53.314;-6.300;2023-07-02T11:14:52;4.53;;;1.30;;
64367;SDS011;50692;53.314;-6.300;2023-07-02T11:17:38;4.32;;;1.70;;
64367;SDS011;50692;53.314;-6.300;2023-07-02T11:20:26;7.10;;;1.95;;
64367;SDS011;50692;53.314;-6.300;2023-07-02T11:23:20;3.38;;;1.60;;
64367;SDS011;50692;53.314;-6.300;2023-07-02T11:26:09;6.45;;;1.63;;
64367;SDS011;50692;53.314;-6.300;2023-07-02T11:28:56;5.30;;;1.70;;
64367;SDS011;50692;53.314;-6.300;2023-07-02T11:31:42;3.20;;;1.38;;
64367;SDS011;50692;53.314;-6.300;2023-07-02T11:34:28;4.45;;;1.60;;
64367;SDS011;50692;53.314;-6.300;2023-07-02T11:37:14;2.30;;;1.50;;
64367;SDS011;50692;53.314;-6.300;2023-07-02T11:40:00;3.55;;;1.42;;
64367;SDS011;50692;53.314;-6.300;2023-07-02T11:42:46;3.45;;;1.17;;
64367;SDS011;50692;53.314;-6.300;2023-07-02T11:45:32;4.68;;;1.70;;
64367;SDS011;50692;53.314;-6.300;2023-07-02T11:48:18;5.82;;;1.40;;
64367;SDS011;50692;53.314;-6.300;2023-07-02T11:51:04;3.83;;;1.13;;
64367;SDS011;50692;53.314;-6.300;2023-07-02T11:53:49;4.93;;;1.38;;
64367;SDS011;50692;53.314;-6.300;2023-07-02T11:56:35;4.97;;;1.27;;
64367;SDS011;50692;53.314;-6.300;2023-07-02T11:59:21;5.95;;;1.60;;
64367;SDS011;50692;53.314;-6.300;2023-07-02T12:02:07;6.57;;;1.42;;
64367;SDS011;50692;53.314;-6.300;2023-07-02T12:04:53;4.70;;;1.30;;
64367;SDS011;50692;53.314;-6.300;2023-07-02T12:07:38;3.47;;;1.30;;
64367;SDS011;50692;53.314;-6.300;2023-07-02T12:10:24;3.13;;;1.10;;
64367;SDS011;50692;53.314;-6.300;2023-07-02T12:13:10;2.65;;;1.40;;
64367;SDS011;50692;53.314;-6.300;2023-07-02T12:15:56;3.13;;;1.23;;
64367;SDS011;50692;53.314;-6.300;2023-07-02T12:18:42;3.40;;;1.02;;
64367;SDS011;50692;53.314;-6.300;2023-07-02T12:21:28;4.10;;;1.48;;
64367;SDS011;50692;53.314;-6.300;2023-07-02T12:24:14;5.50;;;1.20;;
64367;SDS011;50692;53.314;-6.300;2023-07-02T12:27:00;3.55;;;1.17;;
64367;SDS011;50692;53.314;-6.300;2023-07-02T12:29:46;2.65;;;0.90;;
64367;SDS011;50692;53.314;-6.300;2023-07-02T12:32:33;3.00;;;1.35;;
64367;SDS011;50692;53.314;-6.300;2023-07-02T12:35:19;2.53;;;1.25;;
64367;SDS011;50692;53.314;-6.300;2023-07-02T12:38:06;2.55;;;0.95;;
64367;SDS011;50692;53.314;-6.300;2023-07-02T12:40:53;1.88;;;0.93;;
64367;SDS011;50692;53.314;-6.300;2023-07-02T12:43:39;2.60;;;1.05;;
64367;SDS011;50692;53.314;-6.300;2023-07-02T12:46:25;2.63;;;1.05;;
64367;SDS011;50692;53.314;-6.300;2023-07-02T12:49:11;1.98;;;1.17;;
64367;SDS011;50692;53.314;-6.300;2023-07-02T12:51:57;4.43;;;1.00;;
64367;SDS011;50692;53.314;-6.300;2023-07-02T12:54:43;1.30;;;1.00;;
64367;SDS011;50692;53.314;-6.300;2023-07-02T12:57:28;3.03;;;1.00;;
64367;SDS011;50692;53.314;-6.300;2023-07-02T13:00:14;3.22;;;1.10;;
64367;SDS011;50692;53.314;-6.300;2023-07-02T13:03:00;2.42;;;1.00;;
64367;SDS011;50692;53.314;-6.300;2023-07-02T13:05:46;3.38;;;1.10;;
64367;SDS011;50692;53.314;-6.300;2023-07-02T13:08:32;3.15;;;0.80;;
64367;SDS011;50692;53.314;-6.300;2023-07-02T13:11:18;1.73;;;1.10;;
64367;SDS011;50692;53.314;-6.300;2023-07-02T13:14:04;3.78;;;1.10;;
64367;SDS011;50692;53.314;-6.300;2023-07-02T13:16:50;2.33;;;1.00;;
64367;SDS011;50692;53.314;-6.300;2023-07-02T13:19:37;5.43;;;1.30;;
64367;SDS011;50692;53.314;-6.300;2023-07-02T13:22:23;3.53;;;1.13;;
64367;SDS011;50692;53.314;-6.300;2023-07-02T13:25:09;4.72;;;1.50;;
64367;SDS011;50692;53.314;-6.300;2023-07-02T13:27:55;3.08;;;1.42;;
64367;SDS011;50692;53.314;-6.300;2023-07-02T13:30:41;3.65;;;1.38;;
64367;SDS011;50692;53.314;-6.300;2023-07-02T13:33:27;2.28;;;1.00;;
64367;SDS011;50692;53.314;-6.300;2023-07-02T13:36:14;3.33;;;1.00;;
64367;SDS011;50692;53.314;-6.300;2023-07-02T13:39:00;3.85;;;1.20;;
64367;SDS011;50692;53.314;-6.300;2023-07-02T13:41:46;3.67;;;1.20;;
64367;SDS011;50692;53.314;-6.300;2023-07-02T13:44:31;5.15;;;1.30;;
64367;SDS011;50692;53.314;-6.300;2023-07-02T13:47:17;3.50;;;1.20;;
64367;SDS011;50692;53.314;-6.300;2023-07-02T13:50:03;6.30;;;2.20;;
64367;SDS011;50692;53.314;-6.300;2023-07-02T13:52:49;2.60;;;0.98;;
64367;SDS011;50692;53.314;-6.300;2023-07-02T13:55:35;5.22;;;2.10;;
64367;SDS011;50692;53.314;-6.300;2023-07-02T13:58:22;3.67;;;1.50;;
64367;SDS011;50692;53.314;-6.300;2023-07-02T14:01:08;3.65;;;1.58;;
64367;SDS011;50692;53.314;-6.300;2023-07-02T14:03:54;3.25;;;1.40;;
64367;SDS011;50692;53.314;-6.300;2023-07-02T14:06:39;1.80;;;0.88;;
64367;SDS011;50692;53.314;-6.300;2023-07-02T14:09:25;3.42;;;1.10;;
64367;SDS011;50692;53.314;-6.300;2023-07-02T14:12:11;2.53;;;1.05;;
64367;SDS011;50692;53.314;-6.300;2023-07-02T14:14:57;3.70;;;1.40;;
64367;SDS011;50692;53.314;-6.300;2023-07-02T14:17:43;2.30;;;1.00;;
64367;SDS011;50692;53.314;-6.300;2023-07-02T14:20:29;2.88;;;1.08;;
64367;SDS011;50692;53.314;-6.300;2023-07-02T14:23:15;1.67;;;1.10;;
64367;SDS011;50692;53.314;-6.300;2023-07-02T14:26:01;1.90;;;1.00;;
64367;SDS011;50692;53.314;-6.300;2023-07-02T14:28:46;3.70;;;1.30;;
64367;SDS011;50692;53.314;-6.300;2023-07-02T14:31:32;2.22;;;1.20;;
64367;SDS011;50692;53.314;-6.300;2023-07-02T14:34:18;3.55;;;1.30;;
64367;SDS011;50692;53.314;-6.300;2023-07-02T14:37:04;3.15;;;1.10;;
64367;SDS011;50692;53.314;-6.300;2023-07-02T14:39:51;2.88;;;1.40;;
64367;SDS011;50692;53.314;-6.300;2023-07-02T14:42:36;2.65;;;1.00;;
64367;SDS011;50692;53.314;-6.300;2023-07-02T14:45:23;3.25;;;1.33;;
64367;SDS011;50692;53.314;-6.300;2023-07-02T14:48:09;4.05;;;1.10;;
64367;SDS011;50692;53.314;-6.300;2023-07-02T14:50:59;3.88;;;1.20;;
64367;SDS011;50692;53.314;-6.300;2023-07-02T14:53:46;2.42;;;0.88;;
64367;SDS011;50692;53.314;-6.300;2023-07-02T14:56:32;2.47;;;0.82;;
64367;SDS011;50692;53.314;-6.300;2023-07-02T14:59:19;3.40;;;1.40;;
64367;SDS011;50692;53.314;-6.300;2023-07-02T15:02:04;2.95;;;1.17;;
64367;SDS011;50692;53.314;-6.300;2023-07-02T15:04:51;4.00;;;0.90;;
64367;SDS011;50692;53.314;-6.300;2023-07-02T15:07:37;2.78;;;1.02;;
64367;SDS011;50692;53.314;-6.300;2023-07-02T15:10:22;2.33;;;0.95;;
64367;SDS011;50692;53.314;-6.300;2023-07-02T15:13:08;3.10;;;0.73;;
64367;SDS011;50692;53.314;-6.300;2023-07-02T15:15:55;3.30;;;0.90;;
64367;SDS011;50692;53.314;-6.300;2023-07-02T15:18:40;3.63;;;1.10;;
64367;SDS011;50692;53.314;-6.300;2023-07-02T15:21:26;3.75;;;0.95;;
64367;SDS011;50692;53.314;-6.300;2023-07-02T15:24:12;2.60;;;1.00;;
64367;SDS011;50692;53.314;-6.300;2023-07-02T15:26:58;3.47;;;0.98;;
64367;SDS011;50692;53.314;-6.300;2023-07-02T15:29:44;2.35;;;0.80;;
64367;SDS011;50692;53.314;-6.300;2023-07-02T15:32:30;2.60;;;0.90;;
64367;SDS011;50692;53.314;-6.300;2023-07-02T15:35:15;2.22;;;0.95;;
64367;SDS011;50692;53.314;-6.300;2023-07-02T15:38:01;3.08;;;0.60;;
64367;SDS011;50692;53.314;-6.300;2023-07-02T15:40:48;3.05;;;0.98;;
64367;SDS011;50692;53.314;-6.300;2023-07-02T15:43:34;2.63;;;0.70;;
64367;SDS011;50692;53.314;-6.300;2023-07-02T15:46:20;2.20;;;0.80;;
64367;SDS011;50692;53.314;-6.300;2023-07-02T15:49:06;2.40;;;0.85;;
64367;SDS011;50692;53.314;-6.300;2023-07-02T15:51:52;2.55;;;0.82;;
64367;SDS011;50692;53.314;-6.300;2023-07-02T15:54:38;1.45;;;0.93;;
64367;SDS011;50692;53.314;-6.300;2023-07-02T15:57:24;2.22;;;0.80;;
64367;SDS011;50692;53.314;-6.300;2023-07-02T16:00:10;2.78;;;0.80;;
64367;SDS011;50692;53.314;-6.300;2023-07-02T16:02:56;2.90;;;1.00;;
64367;SDS011;50692;53.314;-6.300;2023-07-02T16:05:42;3.25;;;0.90;;
64367;SDS011;50692;53.314;-6.300;2023-07-02T16:08:28;1.35;;;0.88;;
64367;SDS011;50692;53.314;-6.300;2023-07-02T16:11:14;3.17;;;0.80;;
64367;SDS011;50692;53.314;-6.300;2023-07-02T16:14:00;3.22;;;0.70;;
64367;SDS011;50692;53.314;-6.300;2023-07-02T16:16:48;1.60;;;0.82;;
64367;SDS011;50692;53.314;-6.300;2023-07-02T16:19:39;1.88;;;0.80;;
64367;SDS011;50692;53.314;-6.300;2023-07-02T16:22:25;2.83;;;1.10;;
64367;SDS011;50692;53.314;-6.300;2023-07-02T16:25:11;2.20;;;1.13;;
64367;SDS011;50692;53.314;-6.300;2023-07-02T16:27:57;4.28;;;1.05;;
64367;SDS011;50692;53.314;-6.300;2023-07-02T16:30:43;4.82;;;1.23;;
64367;SDS011;50692;53.314;-6.300;2023-07-02T16:33:28;2.63;;;1.27;;
64367;SDS011;50692;53.314;-6.300;2023-07-02T16:36:18;3.20;;;1.38;;